West Islip, New York
Current Conditions -  °F | °C
As of 2:53 PM on Sunday 23 Nov 2014 (Local Time) from KFRG Reporting Station
Clear Clear  
Wind Chill: 53°   Ceiling: Unl
Heat Index: 53°   Visibility: 10mi
Dew Point: 29°   Wind: 7mph
Humidity: 40%   Direction: 220°SW
Pressure: 30.15"   Gusts: NA
Location:  40.71°N, 73.29°W
Report Text: KFRG 231953Z 22006KT 10SM CLR 12/M02 A3015 RMK AO2 SLP211 T01171017
Loading
Personal Weather Stations






























Interactive Weather Map New forecast layout! Learn more

10-Day Weather Forecast

Advertisements
Track Severe Weather on mobile